This is the latest recevied weather packets stored in our database for station/object HB9HJL-11. If no packets are shown the sender has not sent any weather packets the latest 10 day(s).
| Time | Temp. | Humidity | Pressure | Rain* | Wind** | Luminosity | Snow |
|---|---|---|---|---|---|---|---|
| 1777427247 | 12.78° C | 45% | 929 hPa | - | - | - | - |
| 1777426347 | 12.78° C | 45% | 928 hPa | - | - | - | - |
| 1777425447 | 13.33° C | 45% | 928 hPa | - | - | - | - |
| 1777424547 | 13.33° C | 44% | 927 hPa | - | - | - | - |
| 1777423647 | 13.33° C | 44% | 927 hPa | - | - | - | - |
| 1777422747 | 13.33° C | 44% | 927 hPa | - | - | - | - |
| 1777421847 | 13.33° C | 45% | 928 hPa | - | - | - | - |
| 1777420947 | 13.89° C | 46% | 929 hPa | - | - | - | - |
| 1777420047 | 13.33° C | 50% | 932 hPa | - | - | - | - |
| 1777419147 | 13.33° C | 59% | 941 hPa | - | - | - | - |
| 1777418247 | 12.78° C | 73% | 950 hPa | - | - | - | - |
| 1777417346 | 12.78° C | 73% | 951 hPa | - | - | - | - |
| 1777416446 | 12.78° C | 72% | 950 hPa | - | - | - | - |
| 1777415546 | 12.78° C | 71% | 951 hPa | - | - | - | - |
| 1777414646 | 13.33° C | 69% | 951 hPa | - | - | - | - |
| 1777413746 | 13.33° C | 69% | 951 hPa | - | - | - | - |
| 1777412846 | 13.33° C | 67% | 951 hPa | - | - | - | - |
| 1777411946 | 13.33° C | 65% | 950 hPa | - | - | - | - |
| 1777411046 | 13.89° C | 65% | 950 hPa | - | - | - | - |
| 1777410145 | 13.89° C | 65% | 950 hPa | - | - | - | - |
| 1777409246 | 13.89° C | 64% | 950 hPa | - | - | - | - |
| 1777408345 | 13.89° C | 64% | 950 hPa | - | - | - | - |
| 1777407445 | 14.44° C | 61% | 949 hPa | - | - | - | - |
| 1777406545 | 15° C | 59% | 949 hPa | - | - | - | - |
| 1777405645 | 15° C | 56% | 947 hPa | - | - | - | - |
* Rain since midnight (hover to see other rain measurements)
** Current wind speed in m/s (hover to see current wind gust speed)